EEL RIVER CAMP CA US current weather conditions

sailwx.info

Wind from 169 at 6 knots gusting 11

Air temperature 40.6° C
Dewpoint 1.5° C

Last reported at 2015-Jul-01 20:28 UTC.
Time now 2015-Jul-01 21:11 UTC

Location: N 40°08' W 123°49'.
View on Google Maps.

See reports from other nearby stations

  
Tides and Currents Weather Stations Pressure Air Temp Water Temp Dewpoint Dewpoint Depression Visibility Wind Speed Wind Dir Waves Ship Positions
date/time (UTC)wind fromknots sea level pressurealtimeterstation pressurevisibilityair tempwater tempwave heightnotes
2015-Jul-01 20:28 169 6 gusting 11 40.6
2015-Jul-01 19:28 144 2 gusting 6 38.3
2015-Jul-01 18:28 33.9
2015-Jul-01 17:28 30.0
2015-Jul-01 16:28 25.6
2015-Jul-01 15:28 21.7
2015-Jul-01 14:28 17.2
2015-Jul-01 13:28 13.9
2015-Jul-01 12:28 13.9
2015-Jul-01 11:28 14.4
2015-Jul-01 10:28 15.6
2015-Jul-01 09:28 16.1
2015-Jul-01 08:28 17.2
2015-Jul-01 07:28 18.3
2015-Jul-01 06:28 272 0 gusting 2 19.4
2015-Jul-01 05:28 21.1
2015-Jul-01 04:28 22.8
2015-Jul-01 03:28 014 4 gusting 9 27.8
2015-Jul-01 02:28 041 6 gusting 13 31.7
2015-Jul-01 01:28 049 6 gusting 12 34.4
2015-Jul-01 00:28 064 5 gusting 13 36.7
2015-Jun-30 23:28 070 5 gusting 12 37.8
2015-Jun-30 22:28 078 5 gusting 13 37.2
2015-Jun-30 21:28 080 6 gusting 12 36.1
2015-Jun-30 20:28 079 6 gusting 13 34.4
2015-Jun-30 19:28 090 5 gusting 10 31.7
2015-Jun-30 18:28 084 3 gusting 7 28.3
2015-Jun-30 17:28 185 2 gusting 5 23.3
2015-Jun-30 16:28 20.0
2015-Jun-30 15:28 088 2 gusting 6 16.7
2015-Jun-30 14:28 11.7
2015-Jun-30 13:28 10.0
2015-Jun-30 12:28 254 0 gusting 2 10.0
2015-Jun-30 11:28 333 0 gusting 6 10.6
2015-Jun-30 10:28 11.1
2015-Jun-30 09:28 303 0 gusting 2 11.7
2015-Jun-30 08:28 12.2
2015-Jun-30 07:28 13.3
2015-Jun-30 06:28 250 1 gusting 7 15.6
2015-Jun-30 05:28 054 4 gusting 9 17.8
2015-Jun-30 04:28 067 4 gusting 11 20.0
2015-Jun-30 03:28 055 3 gusting 13 22.8
2015-Jun-30 02:28 058 6 gusting 13 26.7
2015-Jun-30 01:28 064 6 gusting 12 29.4
2015-Jun-30 00:28 068 6 gusting 13 31.7
2015-Jun-29 23:28 188 5 gusting 8 33.9
2015-Jun-29 22:28 126 1 gusting 8 35.0
2015-Jun-29 21:28 175 1 gusting 5 33.3